Time;durP1;ratioP1;P1;durP2;ratioP2;P2;SDS_P1;SDS_P2;PMS_P1;PMS_P2;Temp;Humidity;BMP_temperature;BMP_pressure;BME280_temperature;BME280_humidity;BME280_pressure;Samples;Min_cycle;Max_cycle;Signal;HPM_P1;HPM_P2
2022/04/08 00:01:35;;;;;;;12.38;1.73;;;5.30;99.90;;;;;;6279007;22;20027;-75
2022/04/08 00:04:12;;;;;;;9.07;2.30;;;5.40;99.90;;;;;;6306341;22;20057;-74
2022/04/08 00:06:40;;;;;;;10.13;1.90;;;5.40;99.90;;;;;;6304612;22;20031;-73
2022/04/08 00:09:06;;;;;;;12.20;1.70;;;5.40;99.90;;;;;;6279026;22;20417;-74
2022/04/08 00:11:32;;;;;;;11.93;1.48;;;5.40;99.90;;;;;;6305132;22;20027;-75
2022/04/08 00:14:04;;;;;;;13.85;2.38;;;5.30;99.90;;;;;;6304862;22;20361;-75
2022/04/08 00:16:30;;;;;;;13.85;1.90;;;5.30;99.90;;;;;;6306810;22;20027;-75
2022/04/08 00:18:56;;;;;;;6.05;1.20;;;5.20;99.90;;;;;;6304489;22;20459;-74
2022/04/08 00:21:28;;;;;;;10.85;1.40;;;5.20;99.90;;;;;;6303242;22;20354;-74
2022/04/08 00:23:55;;;;;;;11.35;2.00;;;5.20;99.90;;;;;;6278922;22;20026;-73
2022/04/08 00:26:22;;;;;;;16.30;3.60;;;5.20;99.90;;;;;;6253881;22;20019;-75
2022/04/08 00:28:48;;;;;;;20.50;2.97;;;5.10;99.90;;;;;;6304454;22;20102;-75
2022/04/08 00:31:14;;;;;;;10.88;1.98;;;5.10;99.90;;;;;;6304209;22;20042;-76
2022/04/08 00:33:39;;;;;;;10.38;2.53;;;5.00;99.90;;;;;;6304326;22;20023;-77
2022/04/08 00:36:07;;;;;;;29.33;4.05;;;4.90;99.90;;;;;;6304482;22;20027;-76
2022/04/08 00:38:35;;;;;;;18.05;3.10;;;4.90;99.90;;;;;;6279359;22;20034;-76
2022/04/08 00:41:04;;;;;;;14.90;2.00;;;4.80;99.90;;;;;;6275436;22;20501;-76
2022/04/08 00:43:39;;;;;;;17.08;2.13;;;4.80;99.90;;;;;;6246368;22;20099;-75
2022/04/08 00:46:06;;;;;;;10.98;3.10;;;4.80;99.90;;;;;;6246773;22;20026;-76
2022/04/08 00:48:33;;;;;;;16.60;2.20;;;4.80;99.90;;;;;;6246621;22;20051;-77
2022/04/08 00:51:00;;;;;;;14.23;2.33;;;4.80;99.90;;;;;;6196310;22;20487;-76
2022/04/08 00:53:28;;;;;;;13.60;2.88;;;4.90;99.90;;;;;;6220708;22;20024;-78
2022/04/08 00:55:54;;;;;;;14.48;2.78;;;5.10;99.90;;;;;;6247631;22;20027;-76
2022/04/08 00:58:21;;;;;;;22.55;2.88;;;5.10;99.90;;;;;;6221157;22;20094;-76
2022/04/08 01:00:47;;;;;;;15.27;2.45;;;5.20;99.90;;;;;;6199272;22;20023;-79
2022/04/08 01:03:20;;;;;;;21.40;4.15;;;5.20;99.90;;;;;;6251525;22;20030;-79
2022/04/08 01:06:13;;;;;;;16.90;3.53;;;5.30;99.90;;;;;;6200780;22;20016;-77
2022/04/08 01:08:46;;;;;;;17.08;2.45;;;5.30;99.90;;;;;;6127152;23;20026;-78
2022/04/08 01:11:19;;;;;;;20.60;2.88;;;5.30;99.90;;;;;;6148527;23;20076;-78
2022/04/08 01:13:54;;;;;;;15.32;2.90;;;5.40;99.90;;;;;;6103099;23;20026;-78
2022/04/08 01:16:26;;;;;;;27.23;2.85;;;5.50;99.90;;;;;;6126130;23;20017;-77
2022/04/08 01:18:52;;;;;;;16.45;2.88;;;5.50;99.90;;;;;;6126748;23;20025;-79
2022/04/08 01:21:19;;;;;;;25.83;3.75;;;5.60;99.90;;;;;;6126047;23;20031;-77
2022/04/08 01:23:48;;;;;;;29.23;3.78;;;5.70;99.90;;;;;;6151283;23;20032;-79
2022/04/08 01:26:16;;;;;;;22.42;4.15;;;5.70;99.90;;;;;;6126728;23;20028;-79
2022/04/08 01:28:45;;;;;;;30.42;4.05;;;5.80;99.90;;;;;;6102116;23;20021;-79
2022/04/08 01:31:18;;;;;;;15.93;2.65;;;5.80;99.90;;;;;;6151164;23;20026;-78
2022/04/08 01:33:44;;;;;;;9.77;2.10;;;5.90;99.90;;;;;;6101489;23;20024;-78
2022/04/08 01:36:13;;;;;;;19.75;2.67;;;5.90;99.90;;;;;;6126413;23;20461;-79
2022/04/08 01:38:42;;;;;;;16.08;3.58;;;5.90;99.90;;;;;;6102436;23;20021;-79
2022/04/08 01:41:18;;;;;;;;;;;5.90;99.90;;;;;;6115898;23;20026;-79
2022/04/08 01:44:06;;;;;;;14.13;3.10;;;5.90;99.90;;;;;;6134217;23;19920;-79
2022/04/08 01:46:35;;;;;;;20.92;3.72;;;5.90;99.90;;;;;;6097371;23;20358;-79
2022/04/08 01:49:01;;;;;;;15.77;2.30;;;5.90;99.90;;;;;;6101274;23;20075;-80
2022/04/08 01:51:27;;;;;;;19.00;2.78;;;6.00;99.90;;;;;;6127293;23;20060;-78
2022/04/08 01:53:55;;;;;;;21.55;3.95;;;6.00;99.90;;;;;;6098335;23;20025;-78
2022/04/08 01:56:22;;;;;;;15.80;3.38;;;6.10;99.90;;;;;;6097029;23;20060;-79
2022/04/08 01:58:50;;;;;;;13.88;3.17;;;6.10;99.90;;;;;;6180654;23;20067;-80
2022/04/08 02:01:32;;;;;;;28.20;4.50;;;6.10;99.90;;;;;;6151189;23;20622;-79
2022/04/08 02:04:01;;;;;;;18.08;2.63;;;6.10;99.90;;;;;;6151359;23;20389;-80
2022/04/08 02:06:27;;;;;;;19.98;3.08;;;6.10;99.90;;;;;;6151618;23;20036;-79
2022/04/08 02:08:53;;;;;;;21.13;3.28;;;6.10;99.90;;;;;;6151734;23;20430;-79
2022/04/08 02:11:20;;;;;;;13.75;3.00;;;6.20;99.90;;;;;;6151533;23;20104;-79
2022/04/08 02:13:47;;;;;;;24.92;3.65;;;6.20;99.90;;;;;;6126491;23;20026;-79
2022/04/08 02:16:13;;;;;;;13.15;2.67;;;6.20;99.90;;;;;;6126792;23;20155;-79
2022/04/08 02:18:39;;;;;;;19.42;2.78;;;6.20;99.90;;;;;;6234228;23;20028;-80
2022/04/08 02:21:05;;;;;;;17.63;2.83;;;6.20;99.90;;;;;;6160651;23;20467;-79
2022/04/08 02:23:33;;;;;;;15.27;2.05;;;6.20;99.90;;;;;;6235958;23;20643;-78
2022/04/08 02:25:58;;;;;;;38.15;4.32;;;6.20;99.90;;;;;;6185773;23;20095;-80
2022/04/08 02:28:28;;;;;;;17.08;3.45;;;6.20;99.90;;;;;;6185343;23;20460;-78
2022/04/08 02:30:55;;;;;;;15.27;1.85;;;6.20;99.90;;;;;;6211067;23;20365;-79
2022/04/08 02:33:21;;;;;;;8.52;1.63;;;6.20;99.90;;;;;;6210482;23;20043;-81
2022/04/08 02:35:52;;;;;;;9.43;1.70;;;6.00;99.90;;;;;;6160592;23;20021;-81
2022/04/08 02:38:19;;;;;;;5.30;1.15;;;5.80;99.90;;;;;;6200888;22;20024;-78
2022/04/08 02:40:45;;;;;;;7.50;1.10;;;5.50;99.90;;;;;;6272479;22;20030;-80
2022/04/08 02:43:11;;;;;;;9.15;1.40;;;5.40;99.90;;;;;;6247165;22;20024;-79
2022/04/08 02:45:40;;;;;;;6.35;1.27;;;5.20;99.90;;;;;;6247858;22;20020;-78
2022/04/08 02:48:09;;;;;;;6.10;0.63;;;5.10;99.90;;;;;;6274428;22;20051;-78
2022/04/08 02:50:36;;;;;;;6.20;0.70;;;5.10;99.90;;;;;;6278258;22;20398;-79
2022/04/08 02:53:05;;;;;;;5.40;1.02;;;5.20;99.90;;;;;;6277812;22;20027;-79
2022/04/08 02:55:32;;;;;;;6.03;1.05;;;5.20;99.90;;;;;;6275004;22;20020;-79
2022/04/08 02:57:57;;;;;;;6.20;1.85;;;5.30;99.90;;;;;;6272657;22;20019;-79
2022/04/08 03:00:26;;;;;;;12.10;2.08;;;5.40;99.90;;;;;;6272210;22;20035;-79
2022/04/08 03:03:15;;;;;;;22.52;4.70;;;5.50;99.90;;;;;;6184483;23;20484;-78
2022/04/08 03:05:41;;;;;;;14.27;2.00;;;5.50;99.90;;;;;;6185294;23;20114;-78
2022/04/08 03:08:07;;;;;;;15.00;3.17;;;5.50;99.90;;;;;;6185418;23;20444;-78
2022/04/08 03:10:33;;;;;;;18.40;3.60;;;5.50;99.90;;;;;;6160382;23;20020;-78
2022/04/08 03:13:02;;;;;;;16.40;3.22;;;5.50;99.90;;;;;;6185143;23;20399;-78
2022/04/08 03:15:27;;;;;;;18.00;4.38;;;5.50;99.90;;;;;;6185276;23;20032;-80
2022/04/08 03:17:53;;;;;;;14.20;2.63;;;5.60;99.90;;;;;;6185155;23;20020;-80
2022/04/08 03:20:40;;;;;;;13.85;2.13;;;5.60;99.90;;;;;;6210536;23;20071;-77
2022/04/08 03:23:07;;;;;;;9.27;1.95;;;5.60;99.90;;;;;;6184770;23;20024;-79
2022/04/08 03:25:52;;;;;;;16.63;3.17;;;5.70;99.90;;;;;;6189603;23;20511;-79
2022/04/08 03:28:17;;;;;;;7.10;1.85;;;5.60;99.90;;;;;;6185178;23;20028;-78
2022/04/08 03:30:46;;;;;;;10.57;2.17;;;5.50;99.90;;;;;;6185304;23;20099;-79
2022/04/08 03:33:25;;;;;;;9.75;2.47;;;5.40;99.90;;;;;;6210253;23;20024;-79
2022/04/08 03:35:53;;;;;;;8.15;1.20;;;5.30;99.90;;;;;;6185890;23;20056;-79
2022/04/08 03:38:19;;;;;;;9.77;1.25;;;5.30;99.90;;;;;;6185059;23;20042;-79
2022/04/08 03:40:48;;;;;;;6.90;1.10;;;5.30;99.90;;;;;;6174020;23;20244;-77
2022/04/08 03:43:23;;;;;;;6.95;1.38;;;5.40;99.90;;;;;;6214948;23;20130;-80
2022/04/08 03:45:49;;;;;;;10.82;2.17;;;5.40;99.90;;;;;;6214946;23;20020;-77
2022/04/08 03:48:19;;;;;;;10.48;1.73;;;5.40;99.90;;;;;;6210613;23;20033;-78
2022/04/08 03:50:55;;;;;;;15.50;2.15;;;5.40;99.90;;;;;;6165070;23;20074;-78
2022/04/08 03:53:28;;;;;;;8.80;1.88;;;5.40;99.90;;;;;;6252514;22;20025;-79
2022/04/08 03:55:57;;;;;;;9.40;2.03;;;5.40;99.90;;;;;;6303857;22;20023;-79
2022/04/08 03:58:27;;;;;;;8.05;1.83;;;5.30;99.90;;;;;;6282789;22;20019;-79
2022/04/08 04:00:53;;;;;;;13.70;3.22;;;5.10;99.90;;;;;;6312868;22;20409;-80
2022/04/08 04:03:21;;;;;;;10.35;1.40;;;5.10;99.90;;;;;;6308721;22;20090;-78
2022/04/08 04:05:47;;;;;;;12.57;1.92;;;4.90;99.90;;;;;;6282291;22;20019;-79
2022/04/08 04:08:18;;;;;;;11.68;1.75;;;4.80;99.90;;;;;;6305024;22;20022;-80
2022/04/08 04:10:50;;;;;;;13.95;1.95;;;4.90;99.90;;;;;;6279519;22;20320;-79
2022/04/08 04:13:19;;;;;;;8.80;1.63;;;5.00;99.90;;;;;;6299864;22;20023;-80
2022/04/08 04:15:45;;;;;;;8.07;1.50;;;5.10;99.90;;;;;;6305111;22;20027;-78
2022/04/08 04:18:11;;;;;;;14.13;3.03;;;5.20;99.90;;;;;;6306795;22;20035;-79
2022/04/08 04:20:37;;;;;;;14.73;2.75;;;5.20;99.90;;;;;;6305277;22;20088;-79
2022/04/08 04:23:03;;;;;;;10.13;2.47;;;5.30;99.90;;;;;;6305067;22;20089;-79
2022/04/08 04:25:29;;;;;;;13.63;2.67;;;5.20;99.90;;;;;;6306393;22;20016;-80
2022/04/08 04:27:55;;;;;;;10.20;1.48;;;5.20;99.90;;;;;;6304902;22;20396;-80
2022/04/08 04:30:23;;;;;;;8.50;2.00;;;5.10;99.90;;;;;;6279226;22;20019;-80
2022/04/08 04:32:51;;;;;;;11.73;2.97;;;5.10;99.90;;;;;;6304923;22;20023;-80
2022/04/08 04:35:18;;;;;;;6.28;1.25;;;5.10;99.90;;;;;;6304929;22;20081;-77
2022/04/08 04:37:45;;;;;;;13.02;2.55;;;4.90;99.90;;;;;;6306589;22;20474;-77
2022/04/08 04:40:12;;;;;;;6.88;1.08;;;4.80;99.90;;;;;;6299051;22;20016;-75
2022/04/08 04:43:12;;;;;;;13.43;1.60;;;4.60;99.90;;;;;;6250868;22;20047;-75
2022/04/08 04:45:39;;;;;;;10.07;2.10;;;4.50;99.90;;;;;;6248054;22;20106;-74
2022/04/08 04:48:10;;;;;;;13.55;2.13;;;4.50;99.90;;;;;;6273881;22;20130;-74
2022/04/08 04:50:40;;;;;;;15.88;2.30;;;4.50;99.90;;;;;;6274082;22;20054;-75
2022/04/08 04:53:09;;;;;;;9.57;1.85;;;4.50;99.90;;;;;;6275571;22;20055;-75
2022/04/08 04:55:35;;;;;;;12.50;2.10;;;4.50;99.90;;;;;;6273320;22;20020;-76
2022/04/08 04:58:02;;;;;;;9.07;1.95;;;4.50;99.90;;;;;;6273391;22;20035;-76
2022/04/08 05:00:51;;;;;;;10.27;1.75;;;4.40;99.90;;;;;;6248355;22;20032;-76
2022/04/08 05:03:18;;;;;;;12.05;2.40;;;4.40;99.90;;;;;;6247498;22;20359;-76
2022/04/08 05:05:43;;;;;;;11.43;2.15;;;4.40;99.90;;;;;;6275323;22;20028;-77
2022/04/08 05:08:09;;;;;;;12.02;2.13;;;4.50;99.90;;;;;;6273362;22;20023;-77
2022/04/08 05:10:38;;;;;;;10.82;2.33;;;4.50;99.90;;;;;;6273535;22;20030;-76
2022/04/08 05:13:04;;;;;;;8.68;1.55;;;4.50;99.90;;;;;;6274922;22;20094;-76
2022/04/08 05:15:32;;;;;;;9.95;2.00;;;4.50;99.90;;;;;;6247313;22;20347;-77
2022/04/08 05:17:59;;;;;;;9.27;1.75;;;4.60;99.90;;;;;;6273302;22;20031;-78
2022/04/08 05:20:25;;;;;;;18.00;3.25;;;4.60;99.90;;;;;;6273849;22;20020;-75
2022/04/08 05:22:51;;;;;;;13.15;1.90;;;4.60;99.90;;;;;;6275733;22;20034;-76
2022/04/08 05:25:17;;;;;;;5.88;1.30;;;4.60;99.90;;;;;;6273568;22;20395;-76
2022/04/08 05:27:43;;;;;;;14.02;1.98;;;4.70;99.90;;;;;;6247927;22;20042;-76
2022/04/08 05:30:12;;;;;;;11.77;2.53;;;4.80;99.90;;;;;;6248104;22;20026;-75
2022/04/08 05:32:39;;;;;;;9.52;1.90;;;4.80;99.90;;;;;;6273424;22;20077;-76
2022/04/08 05:35:06;;;;;;;12.35;2.90;;;4.90;99.90;;;;;;6248359;22;20464;-77
2022/04/08 05:38:05;;;;;;;10.63;2.33;;;5.00;99.90;;;;;;6222805;22;20757;-76
2022/04/08 05:40:30;;;;;;;8.73;1.83;;;5.10;99.90;;;;;;6246035;22;20028;-76
2022/04/08 05:42:56;;;;;;;17.25;2.28;;;5.20;99.90;;;;;;6273289;22;20122;-77
2022/04/08 05:45:22;;;;;;;12.73;2.97;;;5.20;99.90;;;;;;6275586;22;20030;-76
2022/04/08 05:47:55;;;;;;;9.73;1.95;;;5.30;99.90;;;;;;6248810;22;20023;-76
2022/04/08 05:50:21;;;;;;;7.90;1.60;;;5.40;99.90;;;;;;6275859;22;20032;-77
2022/04/08 05:52:48;;;;;;;11.30;2.95;;;5.30;99.90;;;;;;6273503;22;20020;-75
2022/04/08 05:55:16;;;;;;;10.10;1.67;;;5.30;99.90;;;;;;6274427;22;20030;-77
2022/04/08 05:57:42;;;;;;;12.50;2.22;;;5.30;99.90;;;;;;6274879;22;20084;-75
2022/04/08 06:00:13;;;;;;;9.77;2.30;;;5.30;99.90;;;;;;6273466;22;20106;-75
2022/04/08 06:02:43;;;;;;;13.18;2.35;;;5.30;99.90;;;;;;6274993;22;20030;-76
2022/04/08 06:05:18;;;;;;;5.95;1.58;;;5.30;99.90;;;;;;6273107;22;20030;-77
2022/04/08 06:07:56;;;;;;;13.27;2.10;;;5.40;99.90;;;;;;6199267;22;20059;-76
2022/04/08 06:10:23;;;;;;;18.67;4.45;;;5.50;99.90;;;;;;6247266;22;20098;-76
2022/04/08 06:12:50;;;;;;;18.67;4.47;;;5.40;99.90;;;;;;6274591;22;20026;-76
2022/04/08 06:15:16;;;;;;;12.82;2.67;;;5.50;99.90;;;;;;6274626;22;20436;-75
2022/04/08 06:17:44;;;;;;;12.35;2.08;;;5.40;99.90;;;;;;6272060;22;20110;-75
2022/04/08 06:20:11;;;;;;;8.88;1.88;;;5.40;99.90;;;;;;6274367;22;20035;-75
2022/04/08 06:22:39;;;;;;;16.00;2.20;;;5.40;99.90;;;;;;6272488;22;20031;-76
2022/04/08 06:25:11;;;;;;;14.45;2.60;;;5.40;99.90;;;;;;6274532;22;20024;-76
2022/04/08 06:27:40;;;;;;;7.32;1.90;;;5.40;99.90;;;;;;6272822;22;20037;-75
2022/04/08 06:30:11;;;;;;;10.05;1.98;;;5.50;99.90;;;;;;6272425;22;20028;-76
2022/04/08 06:32:38;;;;;;;13.90;2.85;;;5.50;99.90;;;;;;6274097;22;20034;-75
2022/04/08 06:35:05;;;;;;;15.05;2.88;;;5.50;99.90;;;;;;6272308;22;20103;-76
2022/04/08 06:37:31;;;;;;;11.75;2.08;;;5.60;99.90;;;;;;6272931;22;20027;-78
2022/04/08 06:40:03;;;;;;;14.75;1.98;;;5.80;99.90;;;;;;6278881;22;20027;-78
2022/04/08 06:42:29;;;;;;;16.92;2.17;;;5.90;99.90;;;;;;6334706;22;20026;-78
2022/04/08 06:45:05;;;;;;;10.95;1.75;;;5.90;99.90;;;;;;6284397;22;20454;-76
2022/04/08 06:47:32;;;;;;;10.95;1.80;;;5.90;99.90;;;;;;6308403;22;20019;-77
2022/04/08 06:49:58;;;;;;;10.68;1.65;;;6.00;99.90;;;;;;6308671;22;20140;-77
2022/04/08 06:52:32;;;;;;;10.68;1.98;;;6.10;99.90;;;;;;6308464;22;20019;-78
2022/04/08 06:54:57;;;;;;;6.75;1.70;;;6.20;99.90;;;;;;6310362;22;20485;-77
2022/04/08 06:57:23;;;;;;;13.80;2.10;;;6.40;99.90;;;;;;6334741;22;20019;-76
2022/04/08 06:59:49;;;;;;;13.35;2.65;;;6.60;99.90;;;;;;6336526;22;20089;-77
2022/04/08 07:02:15;;;;;;;9.00;1.50;;;6.80;99.90;;;;;;6336227;22;20033;-76
2022/04/08 07:04:40;;;;;;;7.53;1.67;;;7.10;99.90;;;;;;6308376;22;20025;-77
2022/04/08 07:07:06;;;;;;;8.70;1.67;;;7.20;99.90;;;;;;6307871;22;20069;-78
2022/04/08 07:09:33;;;;;;;7.90;1.45;;;7.20;99.90;;;;;;6308310;22;20030;-78
2022/04/08 07:12:04;;;;;;;7.93;1.80;;;7.00;99.90;;;;;;6283158;22;20108;-77
2022/04/08 07:14:30;;;;;;;8.82;1.80;;;6.50;99.90;;;;;;6282797;22;20034;-75
2022/04/08 07:16:56;;;;;;;8.63;1.48;;;6.20;99.90;;;;;;6256923;22;20447;-76
2022/04/08 07:19:22;;;;;;;9.18;1.75;;;5.90;99.90;;;;;;6308342;22;20018;-76
2022/04/08 07:21:48;;;;;;;7.88;1.33;;;5.70;99.90;;;;;;6335989;22;20027;-77
2022/04/08 07:24:14;;;;;;;11.43;1.30;;;5.80;99.90;;;;;;6308371;22;20037;-76
2022/04/08 07:26:42;;;;;;;12.77;1.38;;;6.00;99.90;;;;;;6333785;22;20426;-77
2022/04/08 07:29:15;;;;;;;14.73;2.38;;;6.30;99.90;;;;;;6309846;22;20019;-78
2022/04/08 07:31:41;;;;;;;6.47;1.70;;;6.50;99.90;;;;;;6336359;22;20099;-78
2022/04/08 07:34:06;;;;;;;10.52;2.30;;;6.70;99.90;;;;;;6307861;22;20056;-76
2022/04/08 07:36:32;;;;;;;11.02;2.08;;;6.80;99.90;;;;;;6335943;22;20031;-78
2022/04/08 07:38:58;;;;;;;12.68;1.88;;;6.90;99.90;;;;;;6309803;22;20022;-75
2022/04/08 07:41:24;;;;;;;11.38;1.77;;;7.10;99.90;;;;;;6337769;22;20065;-76
2022/04/08 07:43:53;;;;;;;9.85;2.30;;;7.20;99.90;;;;;;6311195;22;20037;-78
2022/04/08 07:46:21;;;;;;;16.13;2.42;;;7.30;99.90;;;;;;6310312;22;20015;-79
2022/04/08 07:48:57;;;;;;;10.93;2.95;;;7.50;99.90;;;;;;6286836;22;20105;-78
2022/04/08 07:51:26;;;;;;;10.57;2.60;;;7.70;99.90;;;;;;6310272;22;20016;-78
2022/04/08 07:53:56;;;;;;;8.95;1.77;;;7.80;99.90;;;;;;6310021;22;20111;-78
2022/04/08 07:56:21;;;;;;;7.82;1.95;;;7.90;99.90;;;;;;6335807;22;20015;-78
2022/04/08 07:58:49;;;;;;;7.85;2.10;;;8.20;99.90;;;;;;6310296;22;20027;-78
2022/04/08 08:01:29;;;;;;;15.82;1.67;;;8.10;99.90;;;;;;6310335;22;20091;-78
2022/04/08 08:04:22;;;;;;;8.20;2.22;;;7.90;99.90;;;;;;6310099;22;20015;-77
2022/04/08 08:07:02;;;;;;;11.77;1.95;;;7.60;99.90;;;;;;6248110;22;20059;-78
2022/04/08 08:09:30;;;;;;;8.95;1.73;;;7.70;99.90;;;;;;6199068;22;20026;-79
2022/04/08 08:12:22;;;;;;;9.77;1.50;;;7.70;99.90;;;;;;6272966;22;20023;-79
2022/04/08 08:14:47;;;;;;;12.95;2.30;;;7.60;99.90;;;;;;6298639;22;20020;-79
2022/04/08 08:17:13;;;;;;;9.63;1.67;;;7.50;99.90;;;;;;6247034;22;20099;-79
2022/04/08 08:19:39;;;;;;;9.25;1.48;;;7.70;99.90;;;;;;6222069;22;20020;-78
2022/04/08 08:22:12;;;;;;;13.05;1.88;;;8.00;99.90;;;;;;6247219;22;20024;-77
2022/04/08 08:24:37;;;;;;;7.35;1.55;;;8.20;99.90;;;;;;6222228;22;20035;-78
2022/04/08 08:27:07;;;;;;;11.52;1.77;;;8.40;99.90;;;;;;6247227;22;20023;-77
2022/04/08 08:29:33;;;;;;;10.65;1.73;;;8.60;99.90;;;;;;6247096;22;20016;-78
2022/04/08 08:31:59;;;;;;;5.53;1.50;;;8.50;99.90;;;;;;6221496;22;20019;-79
2022/04/08 08:34:25;;;;;;;12.60;1.67;;;8.30;99.90;;;;;;6221685;22;20121;-78
2022/04/08 08:36:54;;;;;;;6.85;1.60;;;7.60;99.90;;;;;;6272468;22;20059;-75
2022/04/08 08:39:21;;;;;;;5.47;0.80;;;6.90;99.90;;;;;;6246488;22;20069;-75
2022/04/08 08:41:48;;;;;;;6.60;0.95;;;6.60;99.90;;;;;;6246389;22;20027;-75
2022/04/08 08:44:15;;;;;;;9.77;1.17;;;6.50;99.90;;;;;;6246613;22;20447;-75
2022/04/08 08:46:40;;;;;;;3.67;0.85;;;6.40;99.90;;;;;;6272818;22;20598;-76
2022/04/08 08:49:06;;;;;;;2.85;0.50;;;6.40;99.90;;;;;;6247072;22;20063;-74
2022/04/08 08:51:41;;;;;;;4.15;0.70;;;6.50;99.90;;;;;;6221070;22;20031;-77
2022/04/08 08:54:18;;;;;;;5.35;1.00;;;6.80;99.90;;;;;;6221820;22;20023;-77
2022/04/08 08:56:44;;;;;;;4.00;0.80;;;7.10;99.90;;;;;;6246713;22;20024;-77
2022/04/08 08:59:18;;;;;;;5.82;1.20;;;7.50;99.90;;;;;;6223190;22;20016;-77
2022/04/08 09:01:44;;;;;;;7.40;1.33;;;7.70;99.90;;;;;;6272159;22;20482;-76
2022/04/08 09:04:11;;;;;;;6.03;1.30;;;7.90;99.90;;;;;;6219614;23;20024;-78
2022/04/08 09:06:44;;;;;;;9.02;0.73;;;8.10;99.90;;;;;;6216312;23;20024;-77
2022/04/08 09:09:13;;;;;;;11.27;1.40;;;8.20;99.90;;;;;;6241528;23;20135;-77
2022/04/08 09:11:40;;;;;;;11.88;1.40;;;8.40;99.90;;;;;;6266214;22;20355;-77
2022/04/08 09:14:08;;;;;;;10.77;1.67;;;8.50;99.90;;;;;;6309216;22;20083;-78
2022/04/08 09:16:38;;;;;;;10.57;1.48;;;8.50;99.90;;;;;;6309778;22;20023;-77
2022/04/08 09:19:12;;;;;;;7.80;1.50;;;8.80;99.90;;;;;;6337298;22;20026;-77
2022/04/08 09:21:52;;;;;;;6.80;1.83;;;9.00;99.90;;;;;;6284656;22;20187;-78
2022/04/08 09:24:23;;;;;;;7.22;1.23;;;9.20;99.90;;;;;;6257853;22;20025;-79
2022/04/08 09:26:52;;;;;;;16.50;1.85;;;9.20;99.90;;;;;;6283629;22;20105;-76
2022/04/08 09:29:24;;;;;;;9.55;1.73;;;9.30;99.90;;;;;;6282793;22;20054;-78
2022/04/08 09:31:56;;;;;;;;;;;9.50;99.90;;;;;;6311704;22;20031;-78
2022/04/08 09:34:25;;;;;;;5.53;1.25;;;9.40;99.90;;;;;;6283191;22;19927;-77
2022/04/08 09:36:53;;;;;;;11.77;1.58;;;9.30;99.90;;;;;;6335707;22;20026;-78
2022/04/08 09:39:20;;;;;;;7.05;1.30;;;9.50;99.90;;;;;;6282819;22;20053;-78
2022/04/08 09:41:50;;;;;;;5.43;1.35;;;9.50;99.90;;;;;;6308416;22;20362;-77
2022/04/08 09:44:24;;;;;;;7.07;1.25;;;9.20;99.90;;;;;;6284006;22;20033;-77
2022/04/08 09:46:50;;;;;;;8.80;1.30;;;9.10;99.90;;;;;;6336891;22;20031;-78
2022/04/08 09:49:16;;;;;;;13.15;2.08;;;9.10;99.90;;;;;;6337144;22;20461;-77
2022/04/08 09:51:42;;;;;;;7.05;1.20;;;9.00;99.90;;;;;;6283183;22;20018;-77
2022/04/08 09:54:15;;;;;;;9.27;2.10;;;9.30;99.90;;;;;;6309264;22;20027;-77
2022/04/08 09:57:02;;;;;;;8.10;1.75;;;9.50;99.90;;;;;;6309527;22;20027;-78
2022/04/08 09:59:56;;;;;;;11.88;1.65;;;9.50;99.90;;;;;;6287881;22;20080;-77
2022/04/08 10:02:26;;;;;;;6.10;1.50;;;9.70;99.90;;;;;;6308577;22;20029;-78
2022/04/08 10:04:55;;;;;;;5.15;1.25;;;9.70;99.90;;;;;;6336960;22;20022;-78
2022/04/08 10:07:21;;;;;;;10.15;1.42;;;10.00;99.90;;;;;;6309030;22;20461;-78
2022/04/08 10:10:21;;;;;;;10.98;3.25;;;10.00;99.90;;;;;;6361378;22;20018;-77
2022/04/08 10:13:30;;;;;;;7.90;1.50;;;9.70;99.90;;;;;;6309067;22;20469;-76
2022/04/08 10:16:12;;;;;;;5.88;1.15;;;9.70;99.90;;;;;;6308844;22;20025;-77
2022/04/08 10:18:42;;;;;;;6.20;1.02;;;9.90;99.90;;;;;;6308675;22;20342;-79
2022/04/08 10:21:10;;;;;;;8.05;1.80;;;9.80;99.90;;;;;;6335067;22;20018;-79
2022/04/08 10:23:39;;;;;;;7.40;1.20;;;10.00;99.90;;;;;;6282669;22;20019;-76
2022/04/08 10:26:19;;;;;;;20.00;3.35;;;10.00;99.90;;;;;;6283319;22;20346;-77
2022/04/08 10:28:46;;;;;;;6.28;1.27;;;9.90;99.90;;;;;;6336890;22;20343;-78
2022/04/08 10:31:20;;;;;;;7.65;1.15;;;10.00;99.90;;;;;;6308582;22;20019;-77
2022/04/08 10:33:59;;;;;;;7.45;1.30;;;10.40;99.90;;;;;;6283889;22;20033;-78
2022/04/08 10:36:35;;;;;;;6.75;1.40;;;10.50;99.90;;;;;;6308753;22;20022;-77
2022/04/08 10:39:15;;;;;;;7.97;1.20;;;10.10;99.90;;;;;;6336828;22;20332;-77
2022/04/08 10:41:49;;;;;;;11.65;1.42;;;10.30;99.90;;;;;;6277736;22;20363;-79
2022/04/08 10:44:15;;;;;;;13.07;3.05;;;10.60;99.90;;;;;;6272593;22;20451;-76
2022/04/08 10:46:50;;;;;;;10.82;1.70;;;10.80;99.90;;;;;;6274551;22;20027;-78
2022/04/08 10:49:27;;;;;;;8.00;2.08;;;10.50;99.90;;;;;;6272546;22;20026;-78
2022/04/08 10:51:53;;;;;;;8.05;2.10;;;10.40;99.90;;;;;;6246896;22;20024;-77
2022/04/08 10:54:22;;;;;;;10.57;1.70;;;10.60;99.90;;;;;;6272341;22;20055;-77
2022/04/08 10:56:58;;;;;;;8.13;1.42;;;10.80;99.90;;;;;;6272437;22;20023;-77
2022/04/08 10:59:30;;;;;;;9.63;1.55;;;10.90;99.90;;;;;;6272503;22;20065;-77
2022/04/08 11:02:02;;;;;;;10.35;1.50;;;10.90;99.90;;;;;;6246492;22;20024;-78
2022/04/08 11:04:32;;;;;;;7.20;1.13;;;11.00;99.90;;;;;;6248571;22;20028;-77
2022/04/08 11:07:06;;;;;;;6.53;0.82;;;10.80;99.90;;;;;;6272422;22;20027;-77
2022/04/08 11:09:32;;;;;;;5.70;0.93;;;10.60;99.90;;;;;;6274464;22;20028;-78
2022/04/08 11:11:59;;;;;;;6.07;1.33;;;10.70;99.90;;;;;;6246022;22;20026;-78
2022/04/08 11:14:28;;;;;;;3.65;1.02;;;10.90;99.90;;;;;;6274500;22;20485;-77
2022/04/08 11:16:54;;;;;;;4.68;1.20;;;10.80;99.90;;;;;;6277074;22;20028;-78
2022/04/08 11:19:21;;;;;;;8.50;1.00;;;11.00;99.90;;;;;;6275043;22;20023;-77
2022/04/08 11:21:48;;;;;;;9.43;1.13;;;10.60;99.90;;;;;;6249195;22;20032;-77
2022/04/08 11:24:19;;;;;;;11.40;1.30;;;10.60;99.90;;;;;;6275155;22;20408;-77
2022/04/08 11:26:53;;;;;;;8.48;1.20;;;10.30;99.90;;;;;;6274779;22;20015;-77
2022/04/08 11:29:23;;;;;;;9.57;1.48;;;9.90;99.90;;;;;;6249360;22;20016;-77
2022/04/08 11:32:05;;;;;;;7.80;1.55;;;9.70;99.90;;;;;;6249304;22;20448;-77
2022/04/08 11:34:31;;;;;;;9.70;1.60;;;9.50;99.90;;;;;;6276163;22;20039;-78
2022/04/08 11:37:00;;;;;;;4.80;0.85;;;9.10;99.90;;;;;;6276667;22;20012;-77
2022/04/08 11:39:30;;;;;;;3.47;0.73;;;8.80;99.90;;;;;;6274678;22;20351;-77
2022/04/08 11:41:57;;;;;;;5.05;1.20;;;8.50;99.90;;;;;;6274437;22;20059;-76
2022/04/08 11:44:25;;;;;;;5.22;1.10;;;8.40;99.90;;;;;;6274901;22;20123;-77
2022/04/08 11:47:18;;;;;;;10.30;1.92;;;8.60;99.90;;;;;;6276023;22;20077;-76
2022/04/08 11:49:47;;;;;;;6.32;1.30;;;9.20;99.90;;;;;;6269988;22;20023;-75
2022/04/08 11:52:13;;;;;;;7.00;1.05;;;9.70;99.90;;;;;;6198066;22;20018;-78
2022/04/08 11:54:40;;;;;;;12.75;2.20;;;10.20;99.90;;;;;;6274133;22;20094;-77
2022/04/08 11:57:31;;;;;;;9.07;1.77;;;10.50;99.90;;;;;;6252073;22;20027;-77
2022/04/08 12:00:04;;;;;;;9.55;1.55;;;11.00;99.90;;;;;;6273174;22;20347;-78
2022/04/08 12:02:31;;;;;;;5.60;1.02;;;11.20;99.90;;;;;;6274063;22;20092;-78
2022/04/08 12:04:59;;;;;;;6.38;1.35;;;11.40;99.90;;;;;;6273872;22;20459;-77
2022/04/08 12:07:30;;;;;;;11.50;2.08;;;11.80;99.90;;;;;;6248523;22;20027;-77
2022/04/08 12:10:00;;;;;;;7.45;1.45;;;12.00;98.90;;;;;;6276172;22;20020;-75
2022/04/08 12:12:29;;;;;;;6.30;1.20;;;12.20;98.20;;;;;;6273960;22;20046;-76
2022/04/08 12:15:08;;;;;;;10.25;1.17;;;12.60;97.20;;;;;;6274770;22;20402;-77
2022/04/08 12:17:51;;;;;;;8.45;1.48;;;12.70;97.00;;;;;;6223155;22;20074;-77
2022/04/08 12:20:20;;;;;;;6.10;1.10;;;12.90;96.20;;;;;;6272254;22;20091;-76
2022/04/08 12:22:59;;;;;;;6.63;1.23;;;13.10;97.30;;;;;;6276113;22;20020;-76
2022/04/08 12:25:24;;;;;;;9.43;1.40;;;13.40;95.40;;;;;;6248287;22;20020;-77
2022/04/08 12:27:55;;;;;;;8.00;1.63;;;13.50;94.90;;;;;;6274229;22;20023;-77
2022/04/08 12:30:28;;;;;;;8.70;1.42;;;13.70;93.90;;;;;;6273547;22;20031;-79
2022/04/08 12:32:56;;;;;;;7.90;1.17;;;13.50;93.00;;;;;;6275404;22;20031;-77
2022/04/08 12:35:27;;;;;;;5.82;1.33;;;13.40;93.10;;;;;;6247992;22;20019;-75
2022/04/08 12:38:05;;;;;;;7.57;1.67;;;13.50;93.80;;;;;;6273809;22;20473;-79
2022/04/08 12:40:32;;;;;;;5.53;0.95;;;14.00;94.00;;;;;;6264717;22;20116;-77
2022/04/08 12:43:00;;;;;;;7.13;1.00;;;14.60;92.60;;;;;;6283661;22;20075;-77
2022/04/08 12:45:29;;;;;;;5.55;0.93;;;14.70;92.20;;;;;;6283299;22;20357;-77
2022/04/08 12:47:55;;;;;;;7.38;1.50;;;14.80;91.00;;;;;;6309373;22;20062;-77
2022/04/08 14:11:55;;;;;;;9.38;2.28;;;15.10;76.00;;;;;;6301220;22;20085;-77
2022/04/08 14:14:21;;;;;;;7.82;1.30;;;15.40;77.30;;;;;;6307976;22;20188;-77
2022/04/08 14:16:47;;;;;;;6.68;1.30;;;15.50;67.60;;;;;;6273409;22;20081;-77
2022/04/08 14:19:12;;;;;;;9.82;2.30;;;15.10;69.30;;;;;;6275633;22;20019;-78
2022/04/08 14:21:38;;;;;;;7.20;1.30;;;15.40;76.40;;;;;;6275361;22;20072;-76
2022/04/08 14:24:04;;;;;;;11.38;1.90;;;15.90;72.90;;;;;;6273477;22;20325;-77
2022/04/08 14:26:30;;;;;;;8.07;1.58;;;16.10;74.80;;;;;;6273002;22;20019;-78